Time;durP1;ratioP1;P1;durP2;ratioP2;P2;SDS_P1;SDS_P2;PMS_P1;PMS_P2;Temp;Humidity;BMP_temperature;BMP_pressure;BME280_temperature;BME280_humidity;BME280_pressure;Samples;Min_cycle;Max_cycle;Signal;HPM_P1;HPM_P2
2022/01/05 00:00:37;;;;;;;1.67;0.47;;;5.60;96.90;;;;;;9176134;19;20018;-72
2022/01/05 00:03:45;;;;;;;1.42;0.60;;;5.60;96.90;;;;;;9178393;19;20007;-71
2022/01/05 00:06:50;;;;;;;2.05;0.57;;;5.50;96.90;;;;;;9178433;19;20641;-71
2022/01/05 00:09:55;;;;;;;2.83;0.75;;;5.50;96.90;;;;;;9180935;19;20010;-72
2022/01/05 00:13:00;;;;;;;1.13;0.60;;;5.50;96.90;;;;;;9176504;19;20043;-72
2022/01/05 00:16:06;;;;;;;1.77;0.55;;;5.50;96.80;;;;;;9177838;19;20029;-72
2022/01/05 00:19:14;;;;;;;1.83;0.60;;;5.40;96.80;;;;;;9175789;19;20015;-72
2022/01/05 00:22:19;;;;;;;1.63;0.47;;;5.40;96.80;;;;;;9177850;19;20018;-72
2022/01/05 00:25:24;;;;;;;2.15;0.60;;;5.40;96.80;;;;;;9174425;19;20483;-71
2022/01/05 00:28:29;;;;;;;3.10;0.70;;;5.40;96.80;;;;;;9176041;19;20022;-72
2022/01/05 00:31:34;;;;;;;2.90;0.90;;;5.40;97.10;;;;;;9175696;19;20118;-71
2022/01/05 00:34:45;;;;;;;3.28;0.85;;;5.30;96.80;;;;;;9176183;19;20015;-71
2022/01/05 00:37:50;;;;;;;2.13;0.40;;;5.30;96.80;;;;;;9175719;19;20112;-71
2022/01/05 00:40:55;;;;;;;2.42;0.85;;;5.30;96.80;;;;;;9175069;19;20019;-71
2022/01/05 00:44:00;;;;;;;0.57;0.45;;;5.20;96.80;;;;;;9175382;19;20029;-71
2022/01/05 00:47:06;;;;;;;1.33;0.60;;;5.20;96.80;;;;;;9175756;19;20017;-72
2022/01/05 00:50:13;;;;;;;2.33;0.70;;;5.20;96.70;;;;;;9176589;19;20134;-71
2022/01/05 00:53:18;;;;;;;3.55;1.33;;;5.10;96.70;;;;;;9173390;19;20455;-71
2022/01/05 00:56:23;;;;;;;1.50;0.60;;;5.10;96.70;;;;;;9178604;19;20064;-71
2022/01/05 00:59:29;;;;;;;2.35;0.63;;;5.10;96.70;;;;;;9176111;19;20351;-73
2022/01/05 01:02:34;;;;;;;3.03;0.70;;;5.00;96.70;;;;;;9178035;19;20029;-73
2022/01/05 01:05:42;;;;;;;2.50;0.70;;;5.00;96.70;;;;;;9176555;19;20025;-71
2022/01/05 01:08:47;;;;;;;2.55;0.80;;;4.90;96.70;;;;;;9174853;19;20022;-71
2022/01/05 01:11:52;;;;;;;4.75;0.70;;;4.90;96.70;;;;;;9178096;19;20016;-71
2022/01/05 01:14:57;;;;;;;1.02;0.50;;;4.90;96.80;;;;;;9175920;19;20018;-71
2022/01/05 01:18:02;;;;;;;3.03;0.75;;;4.80;96.70;;;;;;9177652;19;20010;-71
2022/01/05 01:21:10;;;;;;;1.45;0.57;;;4.80;96.80;;;;;;9174743;19;20022;-71
2022/01/05 01:24:15;;;;;;;2.45;0.60;;;4.80;96.80;;;;;;9173679;19;20015;-71
2022/01/05 01:27:20;;;;;;;4.13;1.05;;;4.80;96.80;;;;;;9174934;19;20014;-72
2022/01/05 01:30:25;;;;;;;2.33;0.77;;;4.70;96.80;;;;;;9173648;19;20018;-71
2022/01/05 01:33:30;;;;;;;3.30;0.90;;;4.70;96.80;;;;;;9174684;19;20025;-71
2022/01/05 01:36:37;;;;;;;2.03;0.70;;;4.70;96.80;;;;;;9172809;19;20018;-71
2022/01/05 01:39:43;;;;;;;1.90;0.70;;;4.60;96.80;;;;;;9175124;19;20402;-71
2022/01/05 01:42:48;;;;;;;2.78;0.80;;;4.60;96.80;;;;;;9173234;19;20375;-71
2022/01/05 01:45:53;;;;;;;1.45;0.80;;;4.60;96.80;;;;;;9172510;19;20029;-71
2022/01/05 01:48:58;;;;;;;3.38;0.85;;;4.60;96.80;;;;;;9173458;19;20013;-71
2022/01/05 01:52:06;;;;;;;2.15;0.47;;;4.60;96.80;;;;;;9173845;19;20372;-71
2022/01/05 01:55:14;;;;;;;3.67;0.98;;;4.50;96.80;;;;;;9170814;19;20025;-71
2022/01/05 01:58:20;;;;;;;1.42;0.60;;;4.50;96.80;;;;;;9175200;19;20014;-71
2022/01/05 02:01:26;;;;;;;2.78;0.65;;;4.50;96.80;;;;;;9172496;19;20023;-72
2022/01/05 02:04:31;;;;;;;2.85;0.60;;;4.50;96.80;;;;;;9174668;19;20034;-71
2022/01/05 02:07:39;;;;;;;0.95;0.52;;;4.40;96.80;;;;;;9174703;19;20026;-71
2022/01/05 02:10:45;;;;;;;2.88;0.85;;;4.40;96.80;;;;;;9174447;19;20094;-71
2022/01/05 02:13:50;;;;;;;1.42;0.50;;;4.40;96.80;;;;;;9174169;19;20018;-72
2022/01/05 02:16:56;;;;;;;2.70;0.60;;;4.40;96.80;;;;;;9174075;19;20022;-72
2022/01/05 02:20:01;;;;;;;3.35;1.13;;;4.30;96.80;;;;;;9174383;19;20101;-72
2022/01/05 02:23:09;;;;;;;1.05;0.52;;;4.30;96.80;;;;;;9172517;19;20467;-72
2022/01/05 02:26:14;;;;;;;1.80;0.52;;;4.30;96.80;;;;;;9173047;19;20432;-72
2022/01/05 02:29:19;;;;;;;1.25;0.40;;;4.20;96.80;;;;;;9170077;19;20029;-72
2022/01/05 02:32:24;;;;;;;2.88;0.40;;;4.20;96.70;;;;;;9174109;19;20467;-73
2022/01/05 02:35:29;;;;;;;2.05;0.50;;;4.20;96.80;;;;;;9171696;19;20010;-71
2022/01/05 02:38:36;;;;;;;3.13;0.57;;;4.20;96.80;;;;;;9173054;19;20482;-72
2022/01/05 02:41:41;;;;;;;1.77;0.57;;;4.10;96.80;;;;;;9172253;19;20348;-73
2022/01/05 02:44:47;;;;;;;3.17;0.77;;;4.10;96.80;;;;;;9173650;19;20057;-72
2022/01/05 02:47:52;;;;;;;1.88;0.55;;;4.10;96.80;;;;;;9178231;19;20018;-72
2022/01/05 02:50:58;;;;;;;1.52;0.57;;;4.10;96.80;;;;;;9181741;19;20022;-71
2022/01/05 02:54:07;;;;;;;0.57;0.30;;;4.00;96.70;;;;;;9180832;19;20022;-71
2022/01/05 02:57:12;;;;;;;2.17;0.40;;;4.00;96.80;;;;;;9183009;19;20018;-72
2022/01/05 03:00:18;;;;;;;3.28;0.75;;;4.00;96.80;;;;;;9180638;19;20045;-71
2022/01/05 03:03:23;;;;;;;1.88;0.73;;;4.00;96.70;;;;;;9179242;19;20014;-72
2022/01/05 03:06:28;;;;;;;2.88;0.70;;;4.00;96.80;;;;;;9179993;19;20030;-71
2022/01/05 03:09:36;;;;;;;4.68;0.70;;;3.90;96.70;;;;;;9178764;19;20480;-71
2022/01/05 03:12:44;;;;;;;1.20;0.45;;;3.90;96.80;;;;;;9178204;19;20697;-72
2022/01/05 03:15:48;;;;;;;2.58;0.68;;;3.90;96.80;;;;;;9178088;19;20616;-71
2022/01/05 03:18:54;;;;;;;5.57;0.93;;;3.80;96.80;;;;;;9177245;19;20021;-72
2022/01/05 03:21:59;;;;;;;2.55;0.70;;;3.80;96.80;;;;;;9177595;19;20018;-71
2022/01/05 03:25:09;;;;;;;1.75;0.63;;;3.80;96.80;;;;;;9178182;19;20488;-71
2022/01/05 03:28:14;;;;;;;1.55;0.50;;;3.80;97.00;;;;;;9180345;19;20018;-72
2022/01/05 03:31:19;;;;;;;1.85;0.65;;;3.80;96.80;;;;;;9178323;19;20025;-72
2022/01/05 03:34:24;;;;;;;1.52;0.57;;;3.80;96.80;;;;;;9178779;19;20094;-73
2022/01/05 03:37:29;;;;;;;2.53;0.75;;;3.80;96.80;;;;;;9178488;19;20014;-72
2022/01/05 03:40:38;;;;;;;2.85;0.55;;;3.70;96.80;;;;;;9179056;19;20021;-72
2022/01/05 03:43:43;;;;;;;2.00;0.90;;;3.70;96.80;;;;;;9179012;19;20022;-72
2022/01/05 03:46:48;;;;;;;4.72;1.13;;;3.70;96.80;;;;;;9178094;19;20042;-72
2022/01/05 03:49:53;;;;;;;3.65;1.23;;;3.70;96.80;;;;;;9178613;19;20014;-72
2022/01/05 03:52:58;;;;;;;2.60;0.90;;;3.70;96.80;;;;;;9176201;19;20048;-72
2022/01/05 03:56:06;;;;;;;3.42;0.80;;;3.70;96.80;;;;;;9181614;19;20029;-71
2022/01/05 03:59:11;;;;;;;2.95;0.82;;;3.70;96.80;;;;;;9176400;19;20018;-72
2022/01/05 04:02:16;;;;;;;1.80;0.60;;;3.60;96.90;;;;;;9177956;19;20018;-71
2022/01/05 04:05:21;;;;;;;3.83;0.70;;;3.60;96.80;;;;;;9180637;19;20025;-71
2022/01/05 04:08:26;;;;;;;3.28;0.80;;;3.60;96.80;;;;;;9175149;19;20014;-71
2022/01/05 04:11:34;;;;;;;2.08;0.70;;;3.60;96.90;;;;;;9178926;19;20022;-71
2022/01/05 04:14:39;;;;;;;5.63;1.10;;;3.60;96.90;;;;;;9175857;19;20529;-71
2022/01/05 04:17:44;;;;;;;1.45;0.55;;;3.60;96.80;;;;;;9177535;19;20022;-71
2022/01/05 04:20:49;;;;;;;3.45;0.88;;;3.60;96.90;;;;;;9177700;19;20026;-71
2022/01/05 04:23:54;;;;;;;2.35;0.73;;;3.60;96.90;;;;;;9175843;19;20392;-71
2022/01/05 04:27:01;;;;;;;3.85;1.10;;;3.60;96.90;;;;;;9178526;19;20015;-72
2022/01/05 04:30:09;;;;;;;3.83;0.65;;;3.60;96.90;;;;;;9180557;19;20021;-71
2022/01/05 04:33:14;;;;;;;3.47;0.88;;;3.60;96.90;;;;;;9178041;19;20025;-71
2022/01/05 04:36:39;;;;;;;4.35;0.80;;;3.60;96.90;;;;;;9179949;19;20030;-72
2022/01/05 04:39:44;;;;;;;2.95;1.00;;;3.60;97.00;;;;;;9178220;19;20021;-71
2022/01/05 04:42:52;;;;;;;2.55;0.77;;;3.60;97.00;;;;;;9177756;19;20025;-72
2022/01/05 04:45:57;;;;;;;4.75;0.77;;;3.60;97.00;;;;;;9179345;19;20021;-72
2022/01/05 04:49:02;;;;;;;3.92;1.27;;;3.70;97.00;;;;;;9178131;19;20017;-71
2022/01/05 04:52:08;;;;;;;3.67;0.90;;;3.70;97.00;;;;;;9178778;19;20476;-71
2022/01/05 04:55:13;;;;;;;3.50;0.90;;;3.70;97.00;;;;;;9175733;19;20014;-71
2022/01/05 04:58:20;;;;;;;3.20;1.15;;;3.70;97.00;;;;;;9177932;19;20015;-71
2022/01/05 05:01:25;;;;;;;3.65;0.90;;;3.70;97.00;;;;;;9179611;19;20010;-72
2022/01/05 05:04:31;;;;;;;2.20;0.98;;;3.70;97.00;;;;;;9179525;19;20014;-74
2022/01/05 05:07:36;;;;;;;4.72;1.08;;;3.70;97.00;;;;;;9179731;19;20025;-72
2022/01/05 05:10:41;;;;;;;2.25;0.90;;;3.70;97.00;;;;;;9178285;19;20019;-71
2022/01/05 05:13:49;;;;;;;3.20;1.05;;;3.70;97.00;;;;;;9180297;19;20014;-71
2022/01/05 05:16:54;;;;;;;2.65;0.70;;;3.80;97.00;;;;;;9177958;19;20014;-73
2022/01/05 05:19:59;;;;;;;3.45;0.93;;;3.70;97.00;;;;;;9180171;19;20029;-71
2022/01/05 05:23:05;;;;;;;3.25;0.90;;;3.80;97.00;;;;;;9176230;19;20379;-71
2022/01/05 05:26:10;;;;;;;4.72;1.10;;;3.80;97.00;;;;;;9178104;19;20032;-71
2022/01/05 05:29:18;;;;;;;2.60;0.70;;;3.80;97.00;;;;;;9178104;19;20021;-71
2022/01/05 05:32:23;;;;;;;6.32;1.10;;;3.80;97.00;;;;;;9178553;19;20018;-71
2022/01/05 05:35:28;;;;;;;3.35;1.08;;;3.80;96.90;;;;;;9178622;19;20015;-71
2022/01/05 05:38:33;;;;;;;2.45;1.00;;;3.80;96.90;;;;;;9176856;19;20077;-72
2022/01/05 05:41:38;;;;;;;3.35;1.00;;;3.80;97.00;;;;;;9176135;19;20345;-72
2022/01/05 05:44:46;;;;;;;2.67;0.70;;;3.80;97.00;;;;;;9176236;19;20022;-72
2022/01/05 05:47:51;;;;;;;5.40;1.00;;;3.80;97.00;;;;;;9175583;19;20021;-71
2022/01/05 05:50:56;;;;;;;3.83;1.33;;;3.80;97.00;;;;;;9174884;19;20019;-71
2022/01/05 05:54:01;;;;;;;3.88;1.05;;;3.80;97.00;;;;;;9170958;19;20010;-72
2022/01/05 05:57:09;;;;;;;3.97;0.95;;;3.80;97.00;;;;;;9171223;19;20010;-71
2022/01/05 06:00:18;;;;;;;2.08;0.73;;;3.80;97.00;;;;;;9176892;19;20025;-71
2022/01/05 06:03:23;;;;;;;2.67;0.80;;;3.80;97.00;;;;;;9174522;19;20493;-71
2022/01/05 06:06:28;;;;;;;3.88;0.85;;;3.80;97.00;;;;;;9175020;19;20022;-73
2022/01/05 06:09:33;;;;;;;4.72;1.33;;;3.80;97.00;;;;;;9175118;19;20014;-73
2022/01/05 06:12:38;;;;;;;3.05;0.80;;;3.90;97.10;;;;;;9175582;19;20026;-72
2022/01/05 06:15:45;;;;;;;3.15;0.95;;;3.80;97.00;;;;;;9177037;19;20019;-71
2022/01/05 06:18:51;;;;;;;4.25;1.08;;;3.90;97.10;;;;;;9176130;19;20010;-72
2022/01/05 06:21:56;;;;;;;4.10;0.70;;;3.90;97.10;;;;;;9177463;19;20018;-71
2022/01/05 06:25:01;;;;;;;4.38;1.02;;;3.90;97.10;;;;;;9186957;19;20019;-71
2022/01/05 06:28:10;;;;;;;4.15;1.23;;;3.90;97.10;;;;;;9183927;19;20360;-71
2022/01/05 06:31:18;;;;;;;2.90;0.88;;;3.90;97.10;;;;;;9184913;19;20010;-71
2022/01/05 06:34:23;;;;;;;2.70;0.93;;;3.90;97.10;;;;;;9186272;19;20082;-71
2022/01/05 06:37:28;;;;;;;3.08;1.17;;;3.90;97.10;;;;;;9186106;19;20360;-71
2022/01/05 06:40:33;;;;;;;3.13;1.10;;;4.00;97.10;;;;;;9185399;19;20018;-71
2022/01/05 06:43:38;;;;;;;3.28;1.00;;;4.00;97.10;;;;;;9183489;19;20111;-71
2022/01/05 06:46:46;;;;;;;5.30;1.23;;;4.00;97.10;;;;;;9185925;19;20057;-71
2022/01/05 06:49:51;;;;;;;2.22;1.08;;;4.00;97.10;;;;;;9184548;19;20014;-71
2022/01/05 06:52:57;;;;;;;3.33;0.80;;;4.00;97.10;;;;;;9180623;19;20022;-71
2022/01/05 06:56:03;;;;;;;2.72;0.80;;;4.00;97.10;;;;;;9181546;19;20025;-71
2022/01/05 06:59:08;;;;;;;5.13;1.35;;;4.00;97.10;;;;;;9180698;19;20013;-72
2022/01/05 07:02:16;;;;;;;3.47;1.17;;;4.10;97.20;;;;;;9180177;19;20025;-71
2022/01/05 07:05:21;;;;;;;3.50;1.17;;;4.10;97.20;;;;;;9183307;19;20531;-71
2022/01/05 07:08:26;;;;;;;4.55;1.10;;;4.10;97.20;;;;;;9180699;19;20053;-72
2022/01/05 07:11:32;;;;;;;3.65;1.20;;;4.10;97.20;;;;;;9181564;19;20911;-72
2022/01/05 07:14:37;;;;;;;3.47;1.10;;;4.20;97.20;;;;;;9176052;19;20057;-72
2022/01/05 07:17:45;;;;;;;3.80;0.90;;;4.20;97.30;;;;;;9175197;19;20093;-72
2022/01/05 07:20:50;;;;;;;2.90;1.02;;;4.20;97.30;;;;;;9174596;19;20033;-72
2022/01/05 07:23:55;;;;;;;3.85;1.30;;;4.20;97.30;;;;;;9173033;19;20015;-72
2022/01/05 07:27:00;;;;;;;4.10;1.13;;;4.20;97.30;;;;;;9174603;19;20014;-72
2022/01/05 07:30:06;;;;;;;3.95;0.90;;;4.30;97.30;;;;;;9175034;19;20015;-71
2022/01/05 07:33:15;;;;;;;4.72;1.35;;;4.30;97.30;;;;;;9173606;19;20049;-71
2022/01/05 07:36:20;;;;;;;3.50;0.95;;;4.30;97.30;;;;;;9179192;19;20411;-71
2022/01/05 07:39:25;;;;;;;3.40;1.20;;;4.30;97.30;;;;;;9179742;19;20026;-71
2022/01/05 07:42:33;;;;;;;4.40;1.10;;;4.30;97.30;;;;;;9180528;19;20026;-71
2022/01/05 07:45:39;;;;;;;3.42;1.15;;;4.30;97.30;;;;;;9179691;19;20019;-70
2022/01/05 07:48:47;;;;;;;3.53;1.10;;;4.30;97.50;;;;;;9181534;19;20070;-70
2022/01/05 07:51:52;;;;;;;4.28;1.00;;;4.30;97.30;;;;;;9173718;19;20355;-71
2022/01/05 07:54:57;;;;;;;3.10;1.10;;;4.30;97.30;;;;;;9177930;19;20018;-71
2022/01/05 07:58:02;;;;;;;2.97;1.20;;;4.30;97.30;;;;;;9180926;19;20356;-71
2022/01/05 08:01:12;;;;;;;2.70;0.75;;;4.30;97.30;;;;;;9179645;19;20026;-71
2022/01/05 08:04:20;;;;;;;3.20;0.93;;;4.30;97.30;;;;;;9176882;19;20510;-71
2022/01/05 08:07:25;;;;;;;2.10;0.80;;;4.40;97.40;;;;;;9179794;19;20022;-71
2022/01/05 08:10:30;;;;;;;2.63;0.95;;;4.40;97.40;;;;;;9177077;19;20093;-71
2022/01/05 08:13:35;;;;;;;5.03;0.82;;;4.40;97.40;;;;;;9176506;19;20019;-71
2022/01/05 08:16:40;;;;;;;2.75;1.08;;;4.40;97.40;;;;;;9178238;19;20593;-70
2022/01/05 08:19:47;;;;;;;3.75;0.98;;;4.40;97.40;;;;;;9173109;19;20010;-70
2022/01/05 08:22:52;;;;;;;2.95;0.95;;;4.40;97.40;;;;;;9176668;19;20014;-71
2022/01/05 08:25:58;;;;;;;4.00;1.17;;;4.40;97.40;;;;;;9176922;19;20102;-71
2022/01/05 08:29:03;;;;;;;4.90;1.23;;;4.50;97.50;;;;;;9177871;19;20025;-70
2022/01/05 08:32:09;;;;;;;4.00;0.88;;;4.50;97.50;;;;;;9176878;19;20479;-70
2022/01/05 08:35:18;;;;;;;2.22;0.70;;;4.50;97.50;;;;;;9177020;19;20364;-71
2022/01/05 08:38:23;;;;;;;2.55;0.90;;;4.50;97.50;;;;;;9177073;19;20472;-71
2022/01/05 08:41:28;;;;;;;2.72;0.70;;;4.50;97.50;;;;;;9176816;19;20337;-71
2022/01/05 08:44:33;;;;;;;3.53;0.95;;;4.50;97.50;;;;;;9173971;19;20018;-71
2022/01/05 08:47:39;;;;;;;1.90;0.90;;;4.60;97.60;;;;;;9175532;19;20018;-71
2022/01/05 08:50:47;;;;;;;2.45;0.85;;;4.60;97.60;;;;;;9177615;19;20657;-71
2022/01/05 08:53:52;;;;;;;1.73;0.70;;;4.60;97.60;;;;;;9172868;19;20044;-71
2022/01/05 08:56:57;;;;;;;3.53;0.80;;;4.60;97.60;;;;;;9176880;19;20025;-71
2022/01/05 09:00:02;;;;;;;1.33;0.55;;;4.60;97.60;;;;;;9176419;19;20025;-71
2022/01/05 09:03:09;;;;;;;1.55;0.40;;;4.60;97.60;;;;;;9177697;19;20041;-71
2022/01/05 09:06:17;;;;;;;2.15;0.80;;;4.70;97.70;;;;;;9174047;19;20021;-71
2022/01/05 09:09:22;;;;;;;2.97;0.80;;;4.70;97.70;;;;;;9176524;19;20496;-70
2022/01/05 09:12:27;;;;;;;1.15;0.40;;;4.70;97.60;;;;;;9175597;19;20029;-70
2022/01/05 09:15:34;;;;;;;0.63;0.40;;;4.70;97.70;;;;;;9177525;19;20015;-71
2022/01/05 09:18:39;;;;;;;1.95;0.60;;;4.70;97.60;;;;;;9177807;19;20021;-70
2022/01/05 09:21:49;;;;;;;0.45;0.30;;;4.70;97.70;;;;;;9176035;19;20519;-71
2022/01/05 09:25:18;;;;;;;1.63;0.68;;;4.70;97.70;;;;;;9173495;19;20019;-71
2022/01/05 09:28:23;;;;;;;3.28;0.63;;;4.80;97.70;;;;;;9176785;19;20014;-71
2022/01/05 09:31:28;;;;;;;1.10;0.63;;;4.80;97.70;;;;;;9176149;19;20028;-71
2022/01/05 09:34:33;;;;;;;1.95;0.52;;;4.80;97.70;;;;;;9176485;19;20025;-71
2022/01/05 09:37:51;;;;;;;1.98;0.55;;;4.80;97.70;;;;;;9173626;19;20478;-71
2022/01/05 09:44:15;;;;;;;1.48;0.43;;;4.80;97.70;;;;;;9176498;19;20021;-71
2022/01/05 09:47:46;;;;;;;1.48;0.50;;;4.80;97.70;;;;;;9174011;19;20026;-71
2022/01/05 09:50:57;;;;;;;1.33;0.40;;;4.80;97.70;;;;;;9177637;19;20014;-71
2022/01/05 09:54:05;;;;;;;1.52;0.60;;;4.90;97.70;;;;;;9172782;19;20086;-71
2022/01/05 09:57:31;;;;;;;2.10;0.63;;;4.90;97.80;;;;;;9174712;19;20022;-71
2022/01/05 10:00:37;;;;;;;1.48;0.55;;;4.90;97.80;;;;;;9172787;19;20014;-71
2022/01/05 10:03:42;;;;;;;3.22;0.90;;;4.90;97.80;;;;;;9173869;19;20022;-71
2022/01/05 10:06:50;;;;;;;4.70;0.82;;;4.90;97.80;;;;;;9173915;19;20056;-71
2022/01/05 10:09:58;;;;;;;2.55;0.60;;;5.00;97.80;;;;;;9174547;19;20471;-71
2022/01/05 10:13:03;;;;;;;3.38;0.70;;;5.00;97.90;;;;;;9174149;19;20014;-71
2022/01/05 10:16:08;;;;;;;2.72;0.65;;;5.00;97.90;;;;;;9174220;19;20022;-71
2022/01/05 10:19:22;;;;;;;3.25;0.90;;;5.10;97.90;;;;;;9171870;19;20022;-71
2022/01/05 10:22:34;;;;;;;;;;;5.10;97.90;;;;;;9174742;19;20010;-71
2022/01/05 10:25:42;;;;;;;3.03;1.00;;;5.10;98.00;;;;;;9173285;19;19915;-71
2022/01/05 10:28:48;;;;;;;3.70;0.85;;;5.20;98.00;;;;;;9172216;19;20019;-71
2022/01/05 10:31:55;;;;;;;2.50;0.85;;;5.30;98.10;;;;;;9171697;19;20470;-71
2022/01/05 10:35:12;;;;;;;1.85;0.77;;;5.30;98.10;;;;;;9170562;19;20018;-71
2022/01/05 10:38:17;;;;;;;3.97;1.30;;;5.40;98.10;;;;;;9172355;19;20021;-71
2022/01/05 10:41:27;;;;;;;4.18;1.30;;;5.50;98.20;;;;;;9171074;19;20018;-71
2022/01/05 10:44:32;;;;;;;2.97;0.90;;;5.50;98.20;;;;;;9172660;19;20014;-71
2022/01/05 10:47:38;;;;;;;3.63;0.80;;;5.60;98.30;;;;;;9171163;19;20368;-71
2022/01/05 10:50:44;;;;;;;3.65;0.90;;;5.70;98.30;;;;;;9172549;19;20015;-71
2022/01/05 10:53:49;;;;;;;4.18;1.02;;;5.80;98.40;;;;;;9168037;19;20653;-72
2022/01/05 10:56:57;;;;;;;4.22;0.77;;;5.90;98.40;;;;;;9173140;19;20460;-71
2022/01/05 11:00:02;;;;;;;4.10;0.55;;;6.00;98.50;;;;;;9173253;19;20014;-71
2022/01/05 11:03:26;;;;;;;2.78;0.80;;;6.10;98.50;;;;;;9171654;19;20157;-71
2022/01/05 11:06:34;;;;;;;2.72;0.85;;;6.20;98.50;;;;;;9170291;19;20348;-71
2022/01/05 11:09:54;;;;;;;1.15;0.40;;;6.30;98.50;;;;;;9178372;19;20023;-71
2022/01/05 11:13:02;;;;;;;2.40;0.73;;;6.40;98.50;;;;;;9180604;19;20023;-70
2022/01/05 11:16:07;;;;;;;0.60;0.32;;;6.40;98.40;;;;;;9179752;19;20018;-71
2022/01/05 11:19:20;;;;;;;1.00;0.50;;;6.50;98.40;;;;;;9182238;19;20074;-71
2022/01/05 11:22:25;;;;;;;1.93;0.50;;;6.50;98.40;;;;;;9181965;19;20017;-70
2022/01/05 11:25:31;;;;;;;1.65;0.50;;;6.60;98.40;;;;;;9177113;19;21088;-70
2022/01/05 11:28:38;;;;;;;1.20;0.38;;;6.60;98.30;;;;;;9176748;19;20022;-70
2022/01/05 11:31:44;;;;;;;1.65;0.47;;;6.60;98.30;;;;;;9181216;19;20041;-69
2022/01/05 11:34:50;;;;;;;1.63;0.47;;;6.70;98.30;;;;;;9176568;19;20021;-71
2022/01/05 11:37:56;;;;;;;2.80;0.60;;;6.70;98.20;;;;;;9180762;19;20042;-71
2022/01/05 11:41:02;;;;;;;0.90;0.50;;;6.70;98.20;;;;;;9178150;19;20022;-70
2022/01/05 11:44:10;;;;;;;2.28;0.90;;;6.70;98.20;;;;;;9179750;19;20011;-70
2022/01/05 11:47:23;;;;;;;1.70;0.65;;;6.80;98.20;;;;;;9177562;19;20030;-70
2022/01/05 11:50:29;;;;;;;2.45;1.00;;;6.80;98.20;;;;;;9179095;19;20029;-69
2022/01/05 11:53:39;;;;;;;2.33;0.68;;;6.80;98.20;;;;;;9177577;19;20018;-70
2022/01/05 11:56:47;;;;;;;2.72;0.82;;;6.80;98.20;;;;;;9183689;19;20014;-70
2022/01/05 12:00:18;;;;;;;2.10;0.70;;;6.90;98.20;;;;;;9181191;19;20015;-70
2022/01/05 12:04:03;;;;;;;1.65;0.60;;;6.90;98.20;;;;;;9182836;19;20340;-70
2022/01/05 12:07:10;;;;;;;2.45;0.77;;;6.90;98.20;;;;;;9179993;19;20015;-70
2022/01/05 12:10:21;;;;;;;1.88;0.65;;;7.00;98.20;;;;;;9181015;19;20430;-70
2022/01/05 12:13:38;;;;;;;4.38;0.70;;;7.00;98.20;;;;;;9180548;19;20023;-70
2022/01/05 12:17:18;;;;;;;1.83;0.70;;;7.00;98.20;;;;;;9180025;19;20014;-70
2022/01/05 12:20:34;;;;;;;2.22;0.80;;;7.10;98.30;;;;;;9178048;19;20517;-69
2022/01/05 12:23:52;;;;;;;2.38;0.80;;;7.10;98.30;;;;;;9181047;19;20379;-69
2022/01/05 12:27:18;;;;;;;2.20;0.57;;;7.20;98.30;;;;;;9175081;19;20444;-70
2022/01/05 12:30:48;;;;;;;2.28;0.52;;;7.20;98.30;;;;;;9176163;19;20085;-70
2022/01/05 12:33:58;;;;;;;1.95;0.70;;;7.20;98.20;;;;;;9177708;19;20015;-69
2022/01/05 12:37:03;;;;;;;1.98;0.80;;;7.30;98.20;;;;;;9179429;19;20344;-69
2022/01/05 12:40:24;;;;;;;1.40;0.70;;;7.30;98.20;;;;;;9179114;19;20364;-69
2022/01/05 12:43:35;;;;;;;1.55;0.50;;;7.30;98.10;;;;;;9178701;19;20109;-69
2022/01/05 12:46:43;;;;;;;1.65;0.57;;;7.30;98.10;;;;;;9176713;19;20018;-70
2022/01/05 12:50:20;;;;;;;2.47;0.80;;;7.40;98.10;;;;;;9178279;19;20010;-70
2022/01/05 12:53:37;;;;;;;2.15;0.80;;;7.40;98.10;;;;;;9172575;19;20020;-70
2022/01/05 12:56:44;;;;;;;2.55;0.80;;;7.40;98.10;;;;;;9177994;19;20394;-69
2022/01/05 12:59:52;;;;;;;2.63;0.65;;;7.40;98.10;;;;;;9178601;19;20037;-70
2022/01/05 13:02:58;;;;;;;2.72;0.85;;;7.40;98.10;;;;;;9178471;19;20036;-70
2022/01/05 13:06:18;;;;;;;1.80;0.77;;;7.50;98.10;;;;;;9177340;19;20022;-69
2022/01/05 13:09:26;;;;;;;1.75;1.00;;;7.50;98.10;;;;;;9174898;19;20014;-69
2022/01/05 13:12:33;;;;;;;3.67;1.05;;;7.50;98.10;;;;;;9176155;19;20014;-70
2022/01/05 13:15:38;;;;;;;2.47;0.95;;;7.50;98.10;;;;;;9178083;19;20019;-69
2022/01/05 13:18:43;;;;;;;1.88;0.80;;;7.50;98.10;;;;;;9177811;19;20002;-69
2022/01/05 13:21:52;;;;;;;1.92;0.75;;;7.50;98.10;;;;;;9175437;19;20019;-69
2022/01/05 13:25:03;;;;;;;1.60;0.65;;;7.60;98.10;;;;;;9178730;19;20392;-70
2022/01/05 13:28:08;;;;;;;2.97;0.88;;;7.60;98.10;;;;;;9176910;19;20010;-69
2022/01/05 13:31:13;;;;;;;2.92;0.82;;;7.60;98.10;;;;;;9177764;19;20018;-69
2022/01/05 13:34:18;;;;;;;3.05;0.70;;;7.60;98.10;;;;;;9179559;19;20021;-69
2022/01/05 13:37:34;;;;;;;2.13;0.90;;;7.70;98.10;;;;;;9179453;19;20014;-69
2022/01/05 13:40:40;;;;;;;2.28;0.63;;;7.60;98.00;;;;;;9176954;19;20014;-69
2022/01/05 13:43:46;;;;;;;1.88;0.50;;;7.70;98.00;;;;;;9175191;19;20023;-70
2022/01/05 13:46:51;;;;;;;0.98;0.50;;;7.60;98.00;;;;;;9171046;19;20033;-69
2022/01/05 13:50:15;;;;;;;1.80;0.60;;;7.60;98.00;;;;;;9172796;19;20014;-69
2022/01/05 13:53:26;;;;;;;1.13;0.45;;;7.60;98.00;;;;;;9170705;19;20015;-69
2022/01/05 13:56:42;;;;;;;1.17;0.30;;;7.60;98.00;;;;;;9174646;19;20023;-71
2022/01/05 13:59:48;;;;;;;0.73;0.30;;;7.60;97.90;;;;;;9175110;19;20020;-70
2022/01/05 14:02:53;;;;;;;1.77;0.50;;;7.60;98.00;;;;;;9176644;19;20025;-70
2022/01/05 14:05:58;;;;;;;2.08;0.85;;;7.60;97.90;;;;;;9173787;19;20011;-78
2022/01/05 14:09:08;;;;;;;1.40;0.65;;;7.60;98.00;;;;;;9174616;19;20018;-78
2022/01/05 14:12:31;;;;;;;1.45;0.63;;;7.60;98.00;;;;;;9177338;19;20516;-78
2022/01/05 14:15:37;;;;;;;2.20;0.50;;;7.60;97.90;;;;;;9177801;19;20028;-77
2022/01/05 14:18:46;;;;;;;1.00;0.50;;;7.60;98.00;;;;;;9177648;19;20081;-78
2022/01/05 14:21:51;;;;;;;1.60;0.70;;;7.60;97.90;;;;;;9176119;19;20090;-77
2022/01/05 14:25:01;;;;;;;1.75;0.68;;;7.50;97.90;;;;;;9177507;19;20029;-78
2022/01/05 14:28:15;;;;;;;0.68;0.38;;;7.50;97.90;;;;;;9177374;19;20015;-78
2022/01/05 14:31:20;;;;;;;;;;;7.50;97.90;;;;;;9178020;19;20048;-77
2022/01/05 14:34:26;;;;;;;2.25;0.73;;;7.50;97.90;;;;;;9176574;19;19915;-77
2022/01/05 14:37:34;;;;;;;2.72;1.00;;;7.40;98.00;;;;;;9178087;19;20019;-77
2022/01/05 14:40:42;;;;;;;2.20;0.60;;;7.40;98.00;;;;;;9179439;19;20028;-78
2022/01/05 14:44:09;;;;;;;3.78;0.70;;;7.40;98.00;;;;;;9178653;19;20094;-77
2022/01/05 14:47:21;;;;;;;3.33;0.88;;;7.40;98.00;;;;;;9183041;19;20543;-77
2022/01/05 14:50:26;;;;;;;3.97;1.00;;;7.40;98.10;;;;;;9186167;19;20015;-77
2022/01/05 14:53:32;;;;;;;2.75;0.68;;;7.40;98.10;;;;;;9183776;19;20014;-77
2022/01/05 14:56:42;;;;;;;1.27;0.60;;;7.40;98.10;;;;;;9182320;19;20025;-77
2022/01/05 14:59:48;;;;;;;3.08;0.77;;;7.40;98.30;;;;;;9180985;19;20365;-77
2022/01/05 15:02:59;;;;;;;2.65;0.50;;;7.40;98.10;;;;;;9182893;19;20047;-77
2022/01/05 15:06:04;;;;;;;2.58;0.90;;;7.40;98.10;;;;;;9180870;19;20033;-78
2022/01/05 15:09:14;;;;;;;2.78;0.60;;;7.40;98.10;;;;;;9181053;19;20023;-77
2022/01/05 15:12:23;;;;;;;4.90;1.02;;;7.40;98.00;;;;;;9182019;19;20665;-76
2022/01/05 15:15:31;;;;;;;2.22;0.57;;;7.40;98.10;;;;;;9181082;19;20044;-77
2022/01/05 15:18:38;;;;;;;2.63;0.73;;;7.40;98.10;;;;;;9181363;19;20014;-77
2022/01/05 15:21:43;;;;;;;2.83;0.77;;;7.40;98.00;;;;;;9174036;19;20022;-76
2022/01/05 15:24:48;;;;;;;1.25;0.63;;;7.40;98.00;;;;;;9179019;19;20030;-77
2022/01/05 15:27:59;;;;;;;1.83;0.50;;;7.40;98.00;;;;;;9174334;19;20040;-77
2022/01/05 15:31:07;;;;;;;0.73;0.30;;;7.40;98.00;;;;;;9172965;19;20006;-77
2022/01/05 15:34:13;;;;;;;1.65;0.68;;;7.40;98.00;;;;;;9174274;19;20032;-77
2022/01/05 15:37:18;;;;;;;1.73;0.57;;;7.40;98.00;;;;;;9176678;19;20031;-77
2022/01/05 15:40:24;;;;;;;1.52;0.65;;;7.40;98.00;;;;;;9174935;19;20036;-77
2022/01/05 15:43:41;;;;;;;1.60;0.60;;;7.40;98.00;;;;;;9174238;19;20022;-77
2022/01/05 15:46:47;;;;;;;2.05;0.65;;;7.30;97.90;;;;;;9173366;19;20021;-79
2022/01/05 15:49:57;;;;;;;1.85;0.68;;;7.40;97.90;;;;;;9174093;19;20355;-76
2022/01/05 15:53:04;;;;;;;1.35;0.43;;;7.30;97.90;;;;;;9171389;19;20094;-76
2022/01/05 15:56:13;;;;;;;1.25;0.35;;;7.30;97.80;;;;;;9173584;19;20514;-78
2022/01/05 16:02:39;;;;;;;2.67;0.63;;;7.30;97.80;;;;;;9168527;19;20014;-77
2022/01/05 16:05:56;;;;;;;1.30;0.40;;;7.30;97.70;;;;;;9171735;19;20013;-78
2022/01/05 16:09:09;;;;;;;2.75;0.45;;;7.30;97.70;;;;;;9171269;19;20483;-76
2022/01/05 16:12:50;;;;;;;1.33;0.68;;;7.20;97.70;;;;;;9172846;19;20515;-78
2022/01/05 16:16:01;;;;;;;2.33;0.55;;;7.20;97.70;;;;;;9171882;19;20041;-77
2022/01/05 16:19:34;;;;;;;;;;;;;;;;;;;;;
2022/01/05 16:22:51;;;;;;;2.70;0.82;;;7.10;97.70;;;;;;9171972;19;20490;-78
2022/01/05 16:25:59;;;;;;;1.30;0.50;;;7.10;97.80;;;;;;9171868;19;20019;-77
2022/01/05 16:29:22;;;;;;;2.78;0.82;;;7.10;97.80;;;;;;9172593;19;20789;-77
2022/01/05 16:32:42;;;;;;;1.15;0.80;;;7.10;97.80;;;;;;9172383;19;20023;-77
2022/01/05 16:36:17;;;;;;;2.08;0.68;;;7.10;97.80;;;;;;9170575;19;20018;-77
2022/01/05 16:39:27;;;;;;;1.33;0.35;;;7.00;97.70;;;;;;9170788;19;20379;-76